createdAt,value
2018-11-06T00:01:55.776Z,11.00
2018-11-06T00:04:29.238Z,10.63
2018-11-06T00:06:56.868Z,13.63
2018-11-06T00:09:24.507Z,13.57
2018-11-06T00:11:52.078Z,9.73
2018-11-06T00:14:19.751Z,12.83
2018-11-06T00:16:47.419Z,13.07
2018-11-06T00:19:14.996Z,12.20
2018-11-06T00:21:42.559Z,10.97
2018-11-06T00:24:10.154Z,13.57
2018-11-06T00:26:37.751Z,10.10
2018-11-06T00:29:05.478Z,10.67
2018-11-06T00:31:33.287Z,11.13
2018-11-06T00:34:00.827Z,11.93
2018-11-06T00:36:28.353Z,10.53
2018-11-06T00:38:55.960Z,17.40
2018-11-06T00:41:23.691Z,13.60
2018-11-06T00:43:51.410Z,12.63
2018-11-06T00:46:19.095Z,13.33
2018-11-06T00:48:46.751Z,13.87
2018-11-06T00:51:14.368Z,11.53
2018-11-06T00:53:41.914Z,9.40
2018-11-06T00:56:09.551Z,9.77
2018-11-06T00:58:37.422Z,13.27
2018-11-06T01:01:05.162Z,15.80
2018-11-06T01:03:38.647Z,9.97
2018-11-06T01:06:06.442Z,12.93
2018-11-06T01:08:34.027Z,13.13
2018-11-06T01:11:01.611Z,12.43
2018-11-06T01:13:29.330Z,11.97
2018-11-06T01:15:56.990Z,12.20
2018-11-06T01:18:24.592Z,12.23
2018-11-06T01:20:52.227Z,13.57
2018-11-06T01:23:19.819Z,12.33
2018-11-06T01:25:47.500Z,12.27
2018-11-06T01:28:15.243Z,12.30
2018-11-06T01:30:42.873Z,10.93
2018-11-06T01:33:10.465Z,12.97
2018-11-06T01:35:39.072Z,11.50
2018-11-06T01:38:06.647Z,10.27
2018-11-06T01:40:34.202Z,11.10
2018-11-06T01:43:01.778Z,11.27
2018-11-06T01:45:29.458Z,11.47
2018-11-06T01:47:57.093Z,11.83
2018-11-06T01:50:24.778Z,10.77
2018-11-06T01:52:52.317Z,12.43
2018-11-06T01:55:19.938Z,11.70
2018-11-06T01:57:47.589Z,10.87
2018-11-06T02:00:16.542Z,13.23
2018-11-06T02:02:44.243Z,10.07
2018-11-06T02:05:12.985Z,8.87
2018-11-06T02:07:41.537Z,11.50
2018-11-06T02:10:10.595Z,10.30
2018-11-06T02:12:38.243Z,13.40
2018-11-06T02:15:06.022Z,9.20
2018-11-06T02:17:33.738Z,12.43
2018-11-06T02:20:01.385Z,12.83
2018-11-06T02:22:29.032Z,12.27
2018-11-06T02:24:56.614Z,12.13
2018-11-06T02:27:24.197Z,12.87
2018-11-06T02:29:51.846Z,10.53
2018-11-06T02:32:19.698Z,11.43
2018-11-06T02:34:47.243Z,11.07
2018-11-06T02:37:14.902Z,12.73
2018-11-06T02:39:42.477Z,12.93
2018-11-06T02:42:10.150Z,11.87
2018-11-06T02:44:37.829Z,10.77
2018-11-06T02:47:05.681Z,13.43
2018-11-06T02:49:33.269Z,11.67
2018-11-06T02:52:00.895Z,13.17
2018-11-06T02:54:28.538Z,15.53
2018-11-06T02:56:56.185Z,10.27
2018-11-06T02:59:23.987Z,11.67
2018-11-06T03:01:51.942Z,10.27
2018-11-06T03:04:19.551Z,11.57
2018-11-06T03:06:47.143Z,10.37
2018-11-06T03:09:14.758Z,11.87
2018-11-06T03:11:42.451Z,12.43
2018-11-06T03:14:10.105Z,10.20
2018-11-06T03:16:37.801Z,14.73
2018-11-06T03:19:05.407Z,12.93
2018-11-06T03:21:32.958Z,15.07
2018-11-06T03:24:00.783Z,11.13
2018-11-06T03:26:28.452Z,11.30
2018-11-06T03:28:56.018Z,14.00
2018-11-06T03:31:23.671Z,12.53
2018-11-06T03:33:51.206Z,14.60
2018-11-06T03:36:18.806Z,12.53
2018-11-06T03:38:46.544Z,12.37
2018-11-06T03:41:14.215Z,15.63
2018-11-06T03:43:41.836Z,12.27
2018-11-06T03:46:09.494Z,13.53
2018-11-06T03:48:37.094Z,10.97
2018-11-06T03:51:05.682Z,11.73
2018-11-06T03:53:33.241Z,11.63
2018-11-06T03:56:00.845Z,12.03
2018-11-06T03:58:28.428Z,10.27
2018-11-06T04:00:56.048Z,13.57
2018-11-06T04:03:23.738Z,12.80
2018-11-06T04:05:51.385Z,12.80
2018-11-06T04:08:18.977Z,10.77
2018-11-06T04:10:46.522Z,13.73
2018-11-06T04:13:14.155Z,12.17
2018-11-06T04:15:41.799Z,11.37
2018-11-06T04:18:09.528Z,12.83
2018-11-06T04:20:37.127Z,11.83
2018-11-06T04:23:05.265Z,11.47
2018-11-06T04:25:32.970Z,13.53
2018-11-06T04:28:00.588Z,13.87
2018-11-06T04:30:28.190Z,12.47
2018-11-06T04:32:55.751Z,12.17
2018-11-06T04:35:23.322Z,13.00
2018-11-06T04:37:50.870Z,11.70
2018-11-06T04:40:18.530Z,14.13
2018-11-06T04:42:46.247Z,10.53
2018-11-06T04:45:13.806Z,14.57
2018-11-06T04:47:41.683Z,14.47
2018-11-06T04:50:10.788Z,13.73
2018-11-06T04:52:38.434Z,14.57
2018-11-06T04:55:07.986Z,16.00
2018-11-06T04:57:35.522Z,13.50
2018-11-06T05:00:03.838Z,13.37
2018-11-06T05:02:31.419Z,12.93
2018-11-06T05:04:59.093Z,13.67
2018-11-06T05:07:26.731Z,15.17
2018-11-06T05:09:54.320Z,13.67
2018-11-06T05:12:21.919Z,13.50
2018-11-06T05:14:49.494Z,14.63
2018-11-06T05:17:17.098Z,12.17
2018-11-06T05:19:44.758Z,13.47
2018-11-06T05:22:12.368Z,14.17
2018-11-06T05:24:40.076Z,12.60
2018-11-06T05:27:07.699Z,11.13
2018-11-06T05:29:35.266Z,11.83
2018-11-06T05:32:02.832Z,14.30
2018-11-06T05:34:30.469Z,10.63
2018-11-06T05:36:58.082Z,12.93
2018-11-06T05:39:25.719Z,13.33
2018-11-06T05:41:53.262Z,13.37
2018-11-06T05:44:20.810Z,12.13
2018-11-06T05:46:48.619Z,10.40
2018-11-06T05:49:16.326Z,12.73
2018-11-06T05:51:43.928Z,11.63
2018-11-06T05:54:11.751Z,10.40
2018-11-06T05:56:39.325Z,13.43
2018-11-06T05:59:06.889Z,13.97
2018-11-06T06:01:34.460Z,11.67
2018-11-06T06:04:02.094Z,11.50
2018-11-06T06:06:29.774Z,10.27
2018-11-06T06:08:57.317Z,12.70
2018-11-06T06:11:24.891Z,15.07
2018-11-06T06:13:52.429Z,10.43
2018-11-06T06:16:20.019Z,11.40
2018-11-06T06:18:47.658Z,12.40
2018-11-06T06:21:15.262Z,12.57
2018-11-06T06:23:42.855Z,14.20
2018-11-06T06:26:10.558Z,12.90
2018-11-06T06:28:38.299Z,11.47
2018-11-06T06:31:05.860Z,11.83
2018-11-06T06:33:33.407Z,10.63
2018-11-06T06:36:01.116Z,9.80
2018-11-06T06:38:28.723Z,11.07
2018-11-06T06:40:56.462Z,11.67
2018-11-06T06:43:24.043Z,14.43
2018-11-06T06:45:51.719Z,12.30
2018-11-06T06:48:19.424Z,11.23
2018-11-06T06:50:47.190Z,11.37
2018-11-06T06:53:14.774Z,12.90
2018-11-06T06:55:42.379Z,12.20
2018-11-06T06:58:10.158Z,12.47
2018-11-06T07:00:37.720Z,14.43
2018-11-06T07:03:05.519Z,11.47
2018-11-06T07:05:33.266Z,12.20
2018-11-06T07:08:00.805Z,11.83
2018-11-06T07:10:28.442Z,12.37
2018-11-06T07:12:56.092Z,9.73
2018-11-06T07:15:23.654Z,11.63
2018-11-06T07:17:51.701Z,9.70
2018-11-06T07:20:21.570Z,12.00
2018-11-06T07:22:49.961Z,10.70
2018-11-06T07:25:17.639Z,13.57
2018-11-06T07:27:46.287Z,12.37
2018-11-06T07:30:15.610Z,14.23
2018-11-06T07:32:43.739Z,13.37
2018-11-06T07:35:12.205Z,14.03
2018-11-06T07:37:40.475Z,12.63
2018-11-06T07:40:09.553Z,15.50
2018-11-06T07:42:37.327Z,13.47
2018-11-06T07:45:06.943Z,12.30
2018-11-06T07:47:34.610Z,12.77
2018-11-06T07:50:02.409Z,12.83
2018-11-06T07:52:30.095Z,12.57
2018-11-06T07:54:57.743Z,15.50
2018-11-06T07:57:25.508Z,9.90
2018-11-06T07:59:53.145Z,13.97
2018-11-06T08:02:20.710Z,14.27
2018-11-06T08:04:48.279Z,11.83
2018-11-06T08:07:15.866Z,12.77
2018-11-06T08:09:43.589Z,17.37
2018-11-06T08:12:11.185Z,12.00
2018-11-06T08:14:38.897Z,12.10
2018-11-06T08:17:06.570Z,21.47
2018-11-06T08:19:34.124Z,16.53
2018-11-06T08:22:01.813Z,14.63
2018-11-06T08:24:29.503Z,11.60
2018-11-06T08:26:57.209Z,13.17
2018-11-06T08:29:24.773Z,14.23
2018-11-06T08:31:52.506Z,16.50
2018-11-06T08:34:19.894Z,16.20
2018-11-06T08:36:47.593Z,15.77
2018-11-06T08:39:15.211Z,16.07
2018-11-06T08:41:42.834Z,14.70
2018-11-06T08:44:10.423Z,15.37
2018-11-06T08:46:37.982Z,13.43
2018-11-06T08:49:05.519Z,16.53
2018-11-06T08:51:33.170Z,16.77
2018-11-06T08:54:00.722Z,19.77
2018-11-06T08:56:28.453Z,16.03
2018-11-06T08:58:56.135Z,18.97
2018-11-06T09:01:23.814Z,20.37
2018-11-06T09:03:51.433Z,17.57
2018-11-06T09:06:19.065Z,19.53
2018-11-06T09:08:46.780Z,21.33
2018-11-06T09:11:14.340Z,17.63
2018-11-06T09:13:41.985Z,16.23
2018-11-06T09:16:09.726Z,19.27
2018-11-06T09:18:37.454Z,19.97
2018-11-06T09:21:05.190Z,24.07
2018-11-06T09:23:32.854Z,21.37
2018-11-06T09:26:00.513Z,18.23
2018-11-06T09:28:28.055Z,17.03
2018-11-06T09:30:55.666Z,16.97
2018-11-06T09:33:23.215Z,18.07
2018-11-06T09:35:50.820Z,22.33
2018-11-06T09:38:18.384Z,22.97
2018-11-06T09:40:45.938Z,20.30
2018-11-06T09:43:13.525Z,23.80
2018-11-06T09:45:41.098Z,22.17
2018-11-06T09:48:08.736Z,22.53
2018-11-06T09:50:36.302Z,26.90
2018-11-06T09:53:04.138Z,22.53
2018-11-06T09:55:31.702Z,23.30
2018-11-06T09:57:59.389Z,22.17
2018-11-06T10:00:27.048Z,21.50
2018-11-06T10:02:54.627Z,26.77
2018-11-06T10:05:22.259Z,25.73
2018-11-06T10:07:50.037Z,28.27
2018-11-06T10:10:18.246Z,24.03
2018-11-06T10:12:46.325Z,22.43
2018-11-06T10:15:19.622Z,22.10
2018-11-06T10:17:48.187Z,24.63
2018-11-06T10:20:16.779Z,29.67
2018-11-06T10:22:44.340Z,22.53
2018-11-06T10:25:12.027Z,21.50
2018-11-06T10:27:40.155Z,21.37
2018-11-06T10:30:10.090Z,22.20
2018-11-06T10:32:37.662Z,23.50
2018-11-06T10:35:05.619Z,23.10
2018-11-06T10:37:33.318Z,13.47
2018-11-06T10:40:01.010Z,16.17
2018-11-06T10:42:28.655Z,20.23
2018-11-06T10:44:56.382Z,17.63
2018-11-06T10:47:23.946Z,24.67
2018-11-06T10:49:51.509Z,22.80
2018-11-06T10:52:19.665Z,18.77
2018-11-06T10:54:47.246Z,14.80
2018-11-06T10:57:14.771Z,14.67
2018-11-06T10:59:42.375Z,22.47
2018-11-06T11:02:19.418Z,21.60
2018-11-06T11:04:47.218Z,19.07
2018-11-06T11:07:14.789Z,21.73
2018-11-06T11:09:42.373Z,16.47
2018-11-06T11:12:09.970Z,14.20
2018-11-06T11:14:37.628Z,20.53
2018-11-06T11:17:05.286Z,18.70
2018-11-06T11:19:32.870Z,17.30
2018-11-06T11:22:00.446Z,18.10
2018-11-06T11:24:28.002Z,20.33
2018-11-06T11:26:55.602Z,16.17
2018-11-06T11:29:23.154Z,21.37
2018-11-06T11:31:50.755Z,17.37
2018-11-06T11:34:18.355Z,18.67
2018-11-06T11:36:45.952Z,15.90
2018-11-06T11:39:13.547Z,20.10
2018-11-06T11:41:41.131Z,19.20
2018-11-06T11:44:08.748Z,17.50
2018-11-06T11:46:36.359Z,17.37
2018-11-06T11:49:04.082Z,16.77
2018-11-06T11:51:31.721Z,15.90
2018-11-06T11:53:59.473Z,12.33
2018-11-06T11:56:27.068Z,13.77
2018-11-06T11:58:54.726Z,14.57
2018-11-06T12:01:22.379Z,13.60
2018-11-06T12:03:50.007Z,15.03
2018-11-06T12:06:17.630Z,14.60
2018-11-06T12:08:45.222Z,15.63
2018-11-06T12:11:12.816Z,12.90
2018-11-06T12:13:40.399Z,14.73
2018-11-06T12:16:08.054Z,14.87
2018-11-06T12:18:35.802Z,15.43
2018-11-06T12:21:03.461Z,14.83
2018-11-06T12:23:31.112Z,15.77
2018-11-06T12:25:58.977Z,15.27
2018-11-06T12:28:26.514Z,13.87
2018-11-06T12:30:54.119Z,17.07
2018-11-06T12:33:21.775Z,17.93
2018-11-06T12:35:49.390Z,18.63
2018-11-06T12:38:16.955Z,13.27
2018-11-06T12:40:44.539Z,14.67
2018-11-06T12:43:12.136Z,10.97
2018-11-06T12:45:39.673Z,16.03
2018-11-06T12:48:07.214Z,14.23
2018-11-06T12:50:34.866Z,14.17
2018-11-06T12:53:02.603Z,12.87
2018-11-06T12:55:30.192Z,13.50
2018-11-06T12:57:57.784Z,15.33
2018-11-06T13:00:25.330Z,17.03
2018-11-06T13:02:52.950Z,14.60
2018-11-06T13:05:20.561Z,17.17
2018-11-06T13:07:48.187Z,18.10
2018-11-06T13:10:16.057Z,15.27
2018-11-06T13:12:43.934Z,11.97
2018-11-06T13:15:11.551Z,16.27
2018-11-06T13:17:39.162Z,16.50
2018-11-06T13:20:08.638Z,15.97
2018-11-06T13:22:36.418Z,12.37
2018-11-06T13:25:04.549Z,15.90
2018-11-06T13:27:32.205Z,16.47
2018-11-06T13:29:59.835Z,16.67
2018-11-06T13:32:27.465Z,15.80
2018-11-06T13:34:55.092Z,18.60
2018-11-06T13:37:22.752Z,14.33
2018-11-06T13:39:50.352Z,14.03
2018-11-06T13:42:17.968Z,12.20
2018-11-06T13:44:45.779Z,15.17
2018-11-06T13:47:13.172Z,23.33
2018-11-06T13:49:40.751Z,13.20
2018-11-06T13:52:08.465Z,12.00
2018-11-06T13:54:36.004Z,18.73
2018-11-06T13:57:03.630Z,17.03
2018-11-06T13:59:31.191Z,15.77
2018-11-06T14:01:58.739Z,15.20
2018-11-06T14:04:26.396Z,14.63
2018-11-06T14:06:53.927Z,12.47
2018-11-06T14:09:21.537Z,18.50
2018-11-06T14:11:49.099Z,21.50
2018-11-06T14:14:16.640Z,20.80
2018-11-06T14:16:44.216Z,13.13
2018-11-06T14:19:11.807Z,17.43
2018-11-06T14:21:39.398Z,18.97
2018-11-06T14:24:07.003Z,15.60
2018-11-06T14:26:34.599Z,17.87
2018-11-06T14:29:02.184Z,16.63
2018-11-06T14:31:29.822Z,18.93
2018-11-06T14:33:57.389Z,13.13
2018-11-06T14:36:25.027Z,16.93
2018-11-06T14:38:52.676Z,22.30
2018-11-06T14:41:21.182Z,18.87
2018-11-06T14:43:48.759Z,19.83
2018-11-06T14:46:16.345Z,16.83
2018-11-06T14:48:44.058Z,18.37
2018-11-06T14:51:11.551Z,18.77
2018-11-06T14:53:39.106Z,22.67
2018-11-06T14:56:06.768Z,20.00
2018-11-06T14:58:34.406Z,19.37
2018-11-06T15:01:01.995Z,22.60
2018-11-06T15:03:29.632Z,19.60
2018-11-06T15:05:57.252Z,19.50
2018-11-06T15:08:24.847Z,15.50
2018-11-06T15:10:52.454Z,21.00
2018-11-06T15:13:20.010Z,20.30
2018-11-06T15:15:47.642Z,17.57
2018-11-06T15:18:15.215Z,17.23
2018-11-06T15:20:42.804Z,18.70
2018-11-06T15:23:10.329Z,27.17
2018-11-06T15:25:37.974Z,19.17
2018-11-06T15:28:05.548Z,19.40
2018-11-06T15:30:33.175Z,15.50
2018-11-06T15:33:00.779Z,14.13
2018-11-06T15:35:28.421Z,18.57
2018-11-06T15:37:56.174Z,16.87
2018-11-06T15:40:23.839Z,18.30
2018-11-06T15:42:51.440Z,21.83
2018-11-06T15:45:19.499Z,19.83
2018-11-06T15:47:47.428Z,18.03
2018-11-06T15:50:16.289Z,17.53
2018-11-06T15:52:44.855Z,11.93
2018-11-06T15:55:12.543Z,16.83
2018-11-06T15:57:40.217Z,15.77
2018-11-06T16:00:16.075Z,19.27
2018-11-06T16:02:44.241Z,12.47
2018-11-06T16:05:11.982Z,13.43
2018-11-06T16:07:39.800Z,14.30
2018-11-06T16:10:09.691Z,10.43
2018-11-06T16:12:37.423Z,11.47
2018-11-06T16:15:06.176Z,9.17
2018-11-06T16:17:34.200Z,10.13
2018-11-06T16:20:01.838Z,8.33
2018-11-06T16:22:29.866Z,8.20
2018-11-06T16:24:57.457Z,8.47
2018-11-06T16:27:25.147Z,10.80
2018-11-06T16:29:52.762Z,13.70
2018-11-06T16:32:20.458Z,13.53
2018-11-06T16:34:48.186Z,11.87
2018-11-06T16:37:15.880Z,8.47
2018-11-06T16:39:43.479Z,11.23
2018-11-06T16:42:11.108Z,11.40
2018-11-06T16:44:38.754Z,10.17
2018-11-06T16:47:06.395Z,10.10
2018-11-06T16:49:34.022Z,10.27
2018-11-06T16:52:01.683Z,12.53
2018-11-06T16:54:29.279Z,10.30
2018-11-06T16:56:56.945Z,9.53
2018-11-06T16:59:24.528Z,12.27
2018-11-06T17:01:52.091Z,8.57
2018-11-06T17:04:19.924Z,9.70
2018-11-06T17:06:48.682Z,8.40
2018-11-06T17:09:16.498Z,7.73
2018-11-06T17:11:44.172Z,8.27
2018-11-06T17:14:12.006Z,10.33
2018-11-06T17:16:39.630Z,7.07
2018-11-06T17:19:07.937Z,8.63
2018-11-06T17:21:35.630Z,6.93
2018-11-06T17:24:03.280Z,6.90
2018-11-06T17:26:31.290Z,7.53
2018-11-06T17:28:59.061Z,8.70
2018-11-06T17:31:26.670Z,7.47
2018-11-06T17:33:54.278Z,8.73
2018-11-06T17:36:21.854Z,10.27
2018-11-06T17:38:49.461Z,10.90
2018-11-06T17:41:17.104Z,8.87
2018-11-06T17:43:44.736Z,8.17
2018-11-06T17:46:12.803Z,8.93
2018-11-06T17:48:40.454Z,8.17
2018-11-06T17:51:08.200Z,8.33
2018-11-06T17:53:35.843Z,9.13
2018-11-06T17:56:03.470Z,8.83
2018-11-06T17:58:31.083Z,10.73
2018-11-06T18:00:58.680Z,8.67
2018-11-06T18:03:26.274Z,9.53
2018-11-06T18:05:53.861Z,10.00
2018-11-06T18:08:21.425Z,9.67
2018-11-06T18:10:49.046Z,9.33
2018-11-06T18:13:16.630Z,10.87
2018-11-06T18:15:44.259Z,10.13
2018-11-06T18:18:11.978Z,8.93
2018-11-06T18:20:39.583Z,8.17
2018-11-06T18:23:07.158Z,6.80
2018-11-06T18:25:34.945Z,10.57
2018-11-06T18:28:02.422Z,9.37
2018-11-06T18:30:30.044Z,8.70
2018-11-06T18:32:57.652Z,8.70
2018-11-06T18:35:25.227Z,10.03
2018-11-06T18:37:52.835Z,13.47
2018-11-06T18:40:20.441Z,13.00
2018-11-06T18:42:48.818Z,8.93
2018-11-06T18:45:16.599Z,9.17
2018-11-06T18:47:44.438Z,10.50
2018-11-06T18:50:14.431Z,9.20
2018-11-06T18:52:43.334Z,7.43
2018-11-06T18:55:11.023Z,10.13
2018-11-06T18:57:38.643Z,7.90
2018-11-06T19:00:08.352Z,13.63
2018-11-06T19:02:35.961Z,12.10
2018-11-06T19:05:03.642Z,10.67
2018-11-06T19:07:31.273Z,12.20
2018-11-06T19:09:58.846Z,14.10
2018-11-06T19:12:26.505Z,11.67
2018-11-06T19:14:54.190Z,8.40
2018-11-06T19:17:21.740Z,9.57
2018-11-06T19:19:49.386Z,8.60
2018-11-06T19:22:16.985Z,12.20
2018-11-06T19:24:44.621Z,11.30
2018-11-06T19:27:12.251Z,11.23
2018-11-06T19:29:39.862Z,10.97
2018-11-06T19:32:07.655Z,9.67
2018-11-06T19:34:35.287Z,10.23
2018-11-06T19:37:03.131Z,10.27
2018-11-06T19:39:30.776Z,9.20
2018-11-06T19:41:58.394Z,10.37
2018-11-06T19:44:26.010Z,12.53
2018-11-06T19:46:53.643Z,7.67
2018-11-06T19:49:21.380Z,14.43
2018-11-06T19:51:49.127Z,13.50
2018-11-06T19:54:16.855Z,12.13
2018-11-06T19:56:44.489Z,10.90
2018-11-06T19:59:12.198Z,11.90
2018-11-06T20:01:39.952Z,10.87
2018-11-06T20:04:07.686Z,10.27
2018-11-06T20:06:36.491Z,10.40
2018-11-06T20:09:06.539Z,12.63
2018-11-06T20:11:34.333Z,12.80
2018-11-06T20:14:01.930Z,12.27
2018-11-06T20:16:29.650Z,18.73
2018-11-06T20:18:57.434Z,15.47
2018-11-06T20:21:25.128Z,14.87
2018-11-06T20:23:52.793Z,16.13
2018-11-06T20:26:20.434Z,19.00
2018-11-06T20:28:48.132Z,14.50
2018-11-06T20:31:15.736Z,18.13
2018-11-06T20:33:43.734Z,17.93
2018-11-06T20:36:11.207Z,18.03
2018-11-06T20:38:38.912Z,15.53
2018-11-06T20:41:06.757Z,18.37
2018-11-06T20:43:34.334Z,12.37
2018-11-06T20:46:02.005Z,14.70
2018-11-06T20:48:29.667Z,13.47
2018-11-06T20:50:57.387Z,11.07
2018-11-06T20:53:25.026Z,15.10
2018-11-06T20:55:52.682Z,19.53
2018-11-06T20:58:20.346Z,17.30
2018-11-06T21:00:47.959Z,14.73
2018-11-06T21:03:15.647Z,14.33
2018-11-06T21:05:43.394Z,8.77
2018-11-06T21:08:11.110Z,12.47
2018-11-06T21:10:38.837Z,12.63
2018-11-06T21:13:06.545Z,16.40
2018-11-06T21:15:34.199Z,12.70
2018-11-06T21:18:02.008Z,9.97
2018-11-06T21:20:29.650Z,12.70
2018-11-06T21:22:57.269Z,13.37
2018-11-06T21:25:24.970Z,14.53
2018-11-06T21:27:52.555Z,11.53
2018-11-06T21:30:20.751Z,10.57
2018-11-06T21:32:49.525Z,11.67
2018-11-06T21:35:17.100Z,9.77
2018-11-06T21:37:44.730Z,10.90
2018-11-06T21:40:13.950Z,8.30
2018-11-06T21:42:42.118Z,7.83
2018-11-06T21:45:10.892Z,9.23
2018-11-06T21:47:38.805Z,10.17
2018-11-06T21:50:08.164Z,10.70
2018-11-06T21:52:35.822Z,9.30
2018-11-06T21:55:04.170Z,6.97
2018-11-06T21:57:31.875Z,9.07
2018-11-06T21:59:59.507Z,8.67
2018-11-06T22:02:27.121Z,8.77
2018-11-06T22:04:54.750Z,7.87
2018-11-06T22:07:22.357Z,8.23
2018-11-06T22:09:50.012Z,12.43
2018-11-06T22:12:17.692Z,10.37
2018-11-06T22:14:45.277Z,9.70
2018-11-06T22:17:13.143Z,9.03
2018-11-06T22:19:40.899Z,8.10
2018-11-06T22:22:08.609Z,7.87
2018-11-06T22:24:36.186Z,6.30
2018-11-06T22:27:03.866Z,7.30
2018-11-06T22:29:31.764Z,7.63
2018-11-06T22:31:59.370Z,9.23
2018-11-06T22:34:26.977Z,7.80
2018-11-06T22:36:54.568Z,7.57
2018-11-06T22:39:22.219Z,9.73
2018-11-06T22:41:49.833Z,8.23
2018-11-06T22:44:17.423Z,15.63
2018-11-06T22:46:45.052Z,13.07
2018-11-06T22:49:13.224Z,8.80
2018-11-06T22:51:40.889Z,10.17
2018-11-06T22:54:08.557Z,11.13
2018-11-06T22:56:36.158Z,10.70
2018-11-06T22:59:03.722Z,10.00
2018-11-06T23:01:31.342Z,12.83
2018-11-06T23:03:59.018Z,16.30
2018-11-06T23:06:26.758Z,12.00
2018-11-06T23:08:54.322Z,12.43
2018-11-06T23:11:22.025Z,12.07
2018-11-06T23:13:49.624Z,11.37
2018-11-06T23:16:17.233Z,13.33
2018-11-06T23:18:44.787Z,10.33
2018-11-06T23:21:12.383Z,12.70
2018-11-06T23:23:40.034Z,12.47
2018-11-06T23:26:07.732Z,14.40
2018-11-06T23:28:35.322Z,10.00
2018-11-06T23:31:02.931Z,14.30
2018-11-06T23:33:30.514Z,14.10
2018-11-06T23:35:58.122Z,13.10
2018-11-06T23:38:25.732Z,14.13
2018-11-06T23:40:53.391Z,12.07
2018-11-06T23:43:21.090Z,11.93
2018-11-06T23:45:48.746Z,14.30
2018-11-06T23:48:16.309Z,12.50
2018-11-06T23:50:43.902Z,9.83
2018-11-06T23:53:11.540Z,11.47
2018-11-06T23:55:39.110Z,9.00
2018-11-06T23:58:06.698Z,9.27
